createdAt,value
2023-05-10T00:00:29.542Z,46.83
2023-05-10T00:03:10.028Z,46.80
2023-05-10T00:05:36.988Z,46.87
2023-05-10T00:08:04.394Z,47.04
2023-05-10T00:10:31.361Z,46.52
2023-05-10T00:12:58.683Z,46.98
2023-05-10T00:15:25.655Z,47.10
2023-05-10T00:17:53.011Z,47.03
2023-05-10T00:20:20.105Z,47.21
2023-05-10T00:22:47.455Z,47.45
2023-05-10T00:25:14.379Z,47.67
2023-05-10T00:27:41.877Z,47.33
2023-05-10T00:30:09.653Z,47.77
2023-05-10T00:32:37.176Z,48.06
2023-05-10T00:35:04.619Z,48.28
2023-05-10T00:37:31.986Z,48.34
2023-05-10T00:39:59.256Z,48.42
2023-05-10T00:42:26.634Z,48.48
2023-05-10T00:44:53.594Z,47.83
2023-05-10T00:47:20.953Z,48.01
2023-05-10T00:49:48.288Z,48.29
2023-05-10T00:52:15.849Z,48.75
2023-05-10T00:54:43.331Z,48.37
2023-05-10T00:57:11.105Z,48.69
2023-05-10T00:59:38.204Z,49.02
2023-05-10T01:02:06.963Z,48.81
2023-05-10T01:04:34.470Z,48.67
2023-05-10T01:07:02.208Z,49.38
2023-05-10T01:09:29.362Z,49.48
2023-05-10T01:11:57.842Z,49.34
2023-05-10T01:14:26.752Z,49.71
2023-05-10T01:16:55.003Z,49.53
2023-05-10T01:19:29.374Z,49.81
2023-05-10T01:22:57.663Z,50.11
2023-05-10T01:26:14.261Z,50.24
2023-05-10T01:29:09.365Z,49.89
2023-05-10T01:32:05.465Z,50.05
2023-05-10T01:34:52.861Z,50.19
2023-05-10T01:37:32.374Z,49.99
2023-05-10T01:40:17.043Z,50.27
2023-05-10T01:43:02.252Z,50.64
2023-05-10T01:46:12.753Z,50.50
2023-05-10T01:48:53.001Z,50.38
2023-05-10T01:51:27.238Z,50.58
2023-05-10T01:54:03.507Z,50.58
2023-05-10T01:56:34.247Z,50.68
2023-05-10T01:59:09.945Z,50.80
2023-05-10T02:01:39.899Z,50.74
2023-05-10T02:04:10.612Z,51.22
2023-05-10T02:06:42.239Z,51.24
2023-05-10T02:09:12.667Z,51.31
2023-05-10T02:11:42.668Z,50.98
2023-05-10T02:14:12.632Z,51.10
2023-05-10T02:16:42.202Z,51.32
2023-05-10T02:19:11.459Z,51.17
2023-05-10T02:21:41.378Z,51.18
2023-05-10T02:24:11.749Z,50.96
2023-05-10T02:26:40.602Z,51.07
2023-05-10T02:29:10.168Z,51.35
2023-05-10T02:31:39.873Z,51.27
2023-05-10T02:34:09.999Z,51.51
2023-05-10T02:36:39.864Z,51.50
2023-05-10T02:39:13.794Z,51.36
2023-05-10T02:41:44.461Z,51.23
2023-05-10T02:44:15.302Z,51.50
2023-05-10T02:46:42.605Z,51.52
2023-05-10T02:49:09.526Z,51.63
2023-05-10T02:51:52.047Z,52.25
2023-05-10T02:54:30.609Z,52.36
2023-05-10T02:57:04.995Z,52.21
2023-05-10T02:59:33.605Z,51.98
2023-05-10T03:02:03.080Z,52.49
2023-05-10T03:04:30.171Z,52.12
2023-05-10T03:06:57.700Z,52.22
2023-05-10T03:09:24.809Z,52.18
2023-05-10T03:12:24.217Z,52.62
2023-05-10T03:15:23.494Z,52.10
2023-05-10T03:18:03.208Z,52.42
2023-05-10T03:20:44.253Z,52.45
2023-05-10T03:23:47.308Z,52.37
2023-05-10T03:26:24.638Z,52.75
2023-05-10T03:28:54.320Z,52.43
2023-05-10T03:31:22.035Z,52.46
2023-05-10T03:33:51.423Z,52.43
2023-05-10T03:36:19.404Z,52.46
2023-05-10T03:38:46.851Z,52.05
2023-05-10T03:41:13.974Z,51.87
2023-05-10T03:43:42.224Z,51.75
2023-05-10T03:46:09.230Z,52.04
2023-05-10T03:48:36.806Z,51.69
2023-05-10T03:51:04.008Z,51.94
2023-05-10T03:53:31.200Z,52.31
2023-05-10T03:55:58.187Z,52.98
2023-05-10T03:58:25.493Z,52.65
2023-05-10T04:00:53.487Z,52.86
2023-05-10T04:03:21.362Z,52.98
2023-05-10T04:05:48.542Z,52.98
2023-05-10T04:08:17.509Z,53.00
2023-05-10T04:10:44.628Z,52.95
2023-05-10T04:13:12.323Z,53.62
2023-05-10T04:15:39.330Z,53.69
2023-05-10T04:18:08.884Z,53.37
2023-05-10T04:20:36.089Z,53.83
2023-05-10T04:23:03.418Z,53.33
2023-05-10T04:25:30.334Z,53.38
2023-05-10T04:27:57.624Z,53.40
2023-05-10T04:30:24.931Z,53.83
2023-05-10T04:32:52.124Z,52.99
2023-05-10T04:35:19.193Z,53.22
2023-05-10T04:37:46.406Z,52.91
2023-05-10T04:40:13.970Z,53.17
2023-05-10T04:42:42.449Z,53.43
2023-05-10T04:45:10.726Z,53.40
2023-05-10T04:47:38.379Z,52.95
2023-05-10T04:50:06.377Z,52.67
2023-05-10T04:52:33.882Z,52.98
2023-05-10T04:55:00.847Z,52.48
2023-05-10T04:57:28.237Z,51.81
2023-05-10T04:59:55.389Z,51.84
2023-05-10T05:02:22.763Z,51.97
2023-05-10T05:04:49.897Z,51.60
2023-05-10T05:07:17.278Z,51.39
2023-05-10T05:09:44.245Z,51.07
2023-05-10T05:12:14.979Z,51.06
2023-05-10T05:14:42.327Z,50.79
2023-05-10T05:17:09.773Z,50.72
2023-05-10T05:19:36.837Z,50.36
2023-05-10T05:22:04.126Z,49.93
2023-05-10T05:24:37.692Z,50.03
2023-05-10T05:27:05.737Z,49.38
2023-05-10T05:29:33.112Z,49.46
2023-05-10T05:32:00.683Z,49.10
2023-05-10T05:34:28.022Z,48.65
2023-05-10T05:36:55.373Z,47.85
2023-05-10T05:39:22.427Z,47.67
2023-05-10T05:41:49.681Z,47.96
2023-05-10T05:44:16.655Z,47.60
2023-05-10T05:46:43.849Z,47.68
2023-05-10T05:49:10.966Z,47.52
2023-05-10T05:51:38.324Z,47.77
2023-05-10T05:54:05.691Z,47.42
2023-05-10T05:56:32.919Z,47.85
2023-05-10T05:58:59.839Z,47.51
2023-05-10T06:01:27.144Z,48.04
2023-05-10T06:03:54.326Z,47.68
2023-05-10T06:06:21.573Z,47.64
2023-05-10T06:08:48.557Z,47.42
2023-05-10T06:11:15.912Z,47.93
2023-05-10T06:13:43.441Z,48.09
2023-05-10T06:16:10.689Z,48.18
2023-05-10T06:18:37.889Z,48.13
2023-05-10T06:21:05.389Z,48.09
2023-05-10T06:23:32.590Z,47.79
2023-05-10T06:25:59.971Z,48.10
2023-05-10T06:28:26.825Z,47.42
2023-05-10T06:30:54.243Z,47.73
2023-05-10T06:33:21.170Z,47.81
2023-05-10T06:35:48.511Z,47.99
2023-05-10T06:38:16.240Z,47.87
2023-05-10T06:40:44.414Z,47.86
2023-05-10T06:43:11.758Z,48.21
2023-05-10T06:45:39.074Z,47.80
2023-05-10T06:48:06.480Z,47.75
2023-05-10T06:50:34.292Z,47.20
2023-05-10T06:53:02.880Z,46.53
2023-05-10T06:55:30.384Z,45.58
2023-05-10T06:57:57.571Z,45.21
2023-05-10T07:00:25.026Z,44.93
2023-05-10T07:02:52.261Z,44.69
2023-05-10T07:05:20.084Z,44.38
2023-05-10T07:07:47.379Z,44.12
2023-05-10T07:10:15.026Z,43.98
2023-05-10T07:12:42.208Z,44.35
2023-05-10T07:15:10.272Z,44.50
2023-05-10T07:17:37.448Z,44.14
2023-05-10T07:20:05.397Z,44.47
2023-05-10T07:22:32.415Z,44.22
2023-05-10T07:24:59.765Z,44.17
2023-05-10T07:27:26.946Z,44.00
2023-05-10T07:29:54.132Z,43.33
2023-05-10T07:32:21.351Z,43.71
2023-05-10T07:34:48.749Z,44.35
2023-05-10T07:37:15.732Z,43.89
2023-05-10T07:39:42.929Z,43.41
2023-05-10T07:42:09.928Z,43.52
2023-05-10T07:44:37.081Z,43.33
2023-05-10T07:47:04.110Z,43.29
2023-05-10T07:49:31.355Z,42.93
2023-05-10T07:51:58.391Z,42.80
2023-05-10T07:54:25.739Z,42.63
2023-05-10T07:56:52.796Z,42.65
2023-05-10T07:59:20.150Z,42.59
2023-05-10T08:01:47.209Z,42.37
2023-05-10T08:04:14.563Z,42.64
2023-05-10T08:06:41.821Z,42.20
2023-05-10T08:09:10.116Z,42.15
2023-05-10T08:11:38.474Z,41.97
2023-05-10T08:14:05.822Z,41.91
2023-05-10T08:16:33.545Z,42.10
2023-05-10T08:19:01.020Z,42.50
2023-05-10T08:21:28.115Z,42.06
2023-05-10T08:23:55.391Z,41.86
2023-05-10T08:26:22.705Z,41.37
2023-05-10T08:28:50.080Z,41.19
2023-05-10T08:31:17.320Z,41.00
2023-05-10T08:33:44.949Z,41.08
2023-05-10T08:36:15.155Z,40.88
2023-05-10T08:38:42.526Z,40.76
2023-05-10T08:41:11.111Z,40.63
2023-05-10T08:43:40.150Z,40.91
2023-05-10T08:46:11.580Z,40.65
2023-05-10T08:48:40.490Z,40.43
2023-05-10T08:51:10.543Z,40.30
2023-05-10T08:53:38.691Z,40.36
2023-05-10T08:56:06.273Z,40.18
2023-05-10T08:58:34.174Z,40.04
2023-05-10T09:01:02.267Z,39.63
2023-05-10T09:03:30.418Z,39.69
2023-05-10T09:05:57.944Z,39.68
2023-05-10T09:08:27.575Z,40.35
2023-05-10T09:10:56.526Z,39.88
2023-05-10T09:13:25.740Z,39.67
2023-05-10T09:15:54.694Z,39.15
2023-05-10T09:18:21.952Z,39.83
2023-05-10T09:20:50.397Z,39.01
2023-05-10T09:23:17.557Z,39.03
2023-05-10T09:25:44.524Z,39.23
2023-05-10T09:28:12.973Z,39.18
2023-05-10T09:30:40.424Z,39.11
2023-05-10T09:33:08.066Z,38.48
2023-05-10T09:35:35.230Z,38.20
2023-05-10T09:38:06.015Z,38.06
2023-05-10T09:40:33.427Z,37.39
2023-05-10T09:43:11.767Z,37.43
2023-05-10T09:45:39.388Z,37.34
2023-05-10T09:48:07.704Z,37.14
2023-05-10T09:50:35.391Z,37.41
2023-05-10T09:53:04.953Z,37.09
2023-05-10T09:55:45.928Z,36.94
2023-05-10T09:58:15.230Z,36.65
2023-05-10T10:00:52.647Z,36.55
2023-05-10T10:03:22.248Z,36.48
2023-05-10T10:05:50.165Z,36.33
2023-05-10T10:08:18.753Z,36.43
2023-05-10T10:10:47.165Z,36.83
2023-05-10T10:13:15.859Z,36.47
2023-05-10T10:15:45.229Z,36.31
2023-05-10T10:18:16.304Z,36.36
2023-05-10T10:20:44.014Z,36.31
2023-05-10T10:23:10.905Z,36.00
2023-05-10T10:25:39.845Z,35.94
2023-05-10T10:28:35.842Z,35.69
2023-05-10T10:31:46.586Z,35.57
2023-05-10T10:34:31.571Z,35.41
2023-05-10T10:37:04.693Z,35.45
2023-05-10T10:39:32.294Z,35.28
2023-05-10T10:42:00.310Z,34.65
2023-05-10T10:44:35.867Z,34.74
2023-05-10T10:47:15.451Z,34.56
2023-05-10T10:49:42.585Z,34.54
2023-05-10T10:52:30.257Z,34.01
2023-05-10T10:55:07.210Z,33.79
2023-05-10T10:57:45.866Z,34.25
2023-05-10T11:00:30.264Z,34.56
2023-05-10T11:03:07.479Z,34.29
2023-05-10T11:05:36.049Z,34.08
2023-05-10T11:08:26.885Z,34.26
2023-05-10T11:10:59.883Z,34.30
2023-05-10T11:13:51.827Z,34.65
2023-05-10T11:16:25.927Z,34.45
2023-05-10T11:19:10.522Z,34.21
2023-05-10T11:21:51.719Z,34.36
2023-05-10T11:24:23.370Z,34.07
2023-05-10T11:26:54.927Z,34.02
2023-05-10T11:29:22.299Z,33.38
2023-05-10T11:31:50.619Z,33.02
2023-05-10T11:34:30.567Z,33.18
2023-05-10T11:36:58.436Z,32.94
2023-05-10T11:39:31.709Z,33.14
2023-05-10T11:42:01.244Z,32.95
2023-05-10T11:44:34.740Z,33.19
2023-05-10T11:47:02.956Z,32.63
2023-05-10T11:49:30.460Z,32.59
2023-05-10T11:52:12.125Z,32.48
2023-05-10T11:54:46.361Z,32.43
2023-05-10T11:57:13.302Z,31.80
2023-05-10T11:59:43.023Z,31.82
2023-05-10T12:02:11.355Z,31.69
2023-05-10T12:04:39.298Z,31.59
2023-05-10T12:07:06.731Z,31.75
2023-05-10T12:09:43.062Z,31.30
2023-05-10T12:12:11.632Z,31.72
2023-05-10T12:14:38.964Z,31.03
2023-05-10T12:17:06.084Z,31.40
2023-05-10T12:19:40.825Z,31.81
2023-05-10T12:22:08.104Z,32.22
2023-05-10T12:24:41.143Z,31.62
2023-05-10T12:27:10.364Z,32.69
2023-05-10T12:29:37.966Z,32.30
2023-05-10T12:32:05.287Z,32.45
2023-05-10T12:34:40.001Z,32.51
2023-05-10T12:37:07.178Z,32.72
2023-05-10T12:39:47.198Z,33.15
2023-05-10T12:42:14.207Z,33.46
2023-05-10T12:44:41.538Z,33.47
2023-05-10T12:47:08.677Z,33.62
2023-05-10T12:49:36.520Z,33.70
2023-05-10T12:52:03.708Z,33.89
2023-05-10T12:54:30.990Z,33.89
2023-05-10T12:56:57.975Z,34.30
2023-05-10T12:59:25.433Z,34.50
2023-05-10T13:01:52.552Z,33.94
2023-05-10T13:04:19.726Z,34.60
2023-05-10T13:06:46.957Z,34.17
2023-05-10T13:09:15.285Z,34.54
2023-05-10T13:11:42.544Z,34.56
2023-05-10T13:14:09.866Z,34.58
2023-05-10T13:16:36.838Z,34.45
2023-05-10T13:19:04.160Z,34.84
2023-05-10T13:21:31.447Z,34.54
2023-05-10T13:23:59.095Z,34.55
2023-05-10T13:26:26.586Z,34.37
2023-05-10T13:28:54.013Z,34.95
2023-05-10T13:31:21.652Z,34.84
2023-05-10T13:33:48.908Z,34.88
2023-05-10T13:36:15.947Z,34.54
2023-05-10T13:38:43.214Z,33.93
2023-05-10T13:41:10.193Z,34.08
2023-05-10T13:43:37.504Z,34.55
2023-05-10T13:46:04.588Z,34.20
2023-05-10T13:48:31.916Z,34.05
2023-05-10T13:50:58.852Z,34.23
2023-05-10T13:53:26.297Z,34.71
2023-05-10T13:55:53.198Z,34.21
2023-05-10T13:58:20.374Z,33.94
2023-05-10T14:00:47.360Z,33.98
2023-05-10T14:03:14.686Z,34.02
2023-05-10T14:05:41.655Z,33.39
2023-05-10T14:08:10.471Z,33.59
2023-05-10T14:10:38.010Z,33.35
2023-05-10T14:13:05.267Z,33.59
2023-05-10T14:15:32.956Z,33.44
2023-05-10T14:18:00.608Z,34.06
2023-05-10T14:20:27.534Z,33.90
2023-05-10T14:22:54.722Z,34.15
2023-05-10T14:25:21.796Z,33.98
2023-05-10T14:27:49.003Z,33.88
2023-05-10T14:30:16.202Z,34.55
2023-05-10T14:32:44.067Z,34.49
2023-05-10T14:35:13.120Z,34.75
2023-05-10T14:37:40.757Z,34.58
2023-05-10T14:40:08.499Z,34.32
2023-05-10T14:42:36.078Z,34.70
2023-05-10T14:45:03.665Z,34.94
2023-05-10T14:47:31.223Z,34.93
2023-05-10T14:49:59.268Z,34.79
2023-05-10T14:52:26.811Z,34.82
2023-05-10T14:54:53.786Z,34.85
2023-05-10T14:57:20.970Z,35.05
2023-05-10T14:59:47.911Z,34.79
2023-05-10T15:02:15.657Z,35.19
2023-05-10T15:04:42.972Z,34.95
2023-05-10T15:07:10.578Z,35.23
2023-05-10T15:09:37.745Z,35.15
2023-05-10T15:12:05.002Z,35.27
2023-05-10T15:14:32.481Z,35.31
2023-05-10T15:17:00.824Z,34.73
2023-05-10T15:19:27.751Z,35.10
2023-05-10T15:21:55.002Z,34.52
2023-05-10T15:24:22.859Z,34.84
2023-05-10T15:26:49.998Z,34.96
2023-05-10T15:29:20.762Z,37.72
2023-05-10T15:31:52.346Z,38.98
2023-05-10T15:34:20.033Z,39.49
2023-05-10T15:36:47.286Z,40.10
2023-05-10T15:39:14.302Z,41.11
2023-05-10T15:41:41.966Z,41.60
2023-05-10T15:44:09.011Z,41.79
2023-05-10T15:46:36.385Z,42.33
2023-05-10T15:49:03.712Z,42.13
2023-05-10T15:51:31.186Z,42.34
2023-05-10T15:54:07.071Z,42.27
2023-05-10T15:56:35.850Z,41.71
2023-05-10T15:59:03.870Z,42.77
2023-05-10T16:01:32.538Z,42.96
2023-05-10T16:03:59.796Z,42.83
2023-05-10T16:06:27.443Z,42.45
2023-05-10T16:08:54.781Z,42.15
2023-05-10T16:11:22.485Z,42.41
2023-05-10T16:13:49.511Z,41.93
2023-05-10T16:16:17.210Z,42.37
2023-05-10T16:18:44.398Z,42.07
2023-05-10T16:21:11.891Z,42.03
2023-05-10T16:23:38.870Z,42.10
2023-05-10T16:26:06.063Z,41.83
2023-05-10T16:28:33.169Z,42.05
2023-05-10T16:31:00.485Z,41.79
2023-05-10T16:33:27.447Z,41.73
2023-05-10T16:35:54.761Z,41.86
2023-05-10T16:38:21.929Z,41.72
2023-05-10T16:40:49.466Z,41.32
2023-05-10T16:43:16.576Z,41.16
2023-05-10T16:45:43.930Z,41.06
2023-05-10T16:48:10.929Z,40.96
2023-05-10T16:50:38.138Z,40.07
2023-05-10T16:53:05.323Z,39.51
2023-05-10T16:55:32.704Z,39.28
2023-05-10T16:58:01.052Z,39.21
2023-05-10T17:00:28.300Z,39.01
2023-05-10T17:02:55.858Z,38.85
2023-05-10T17:05:23.292Z,38.74
2023-05-10T17:07:50.574Z,39.00
2023-05-10T17:10:18.030Z,39.18
2023-05-10T17:12:45.890Z,39.71
2023-05-10T17:15:13.311Z,40.15
2023-05-10T17:17:40.383Z,40.63
2023-05-10T17:20:08.810Z,41.19
2023-05-10T17:22:36.192Z,41.31
2023-05-10T17:25:04.286Z,41.45
2023-05-10T17:27:31.629Z,42.03
2023-05-10T17:29:59.717Z,42.04
2023-05-10T17:32:26.872Z,42.08
2023-05-10T17:34:54.195Z,41.62
2023-05-10T17:37:21.179Z,40.52
2023-05-10T17:39:48.500Z,41.21
2023-05-10T17:42:17.610Z,41.04
2023-05-10T17:44:44.956Z,41.62
2023-05-10T17:47:12.009Z,41.30
2023-05-10T17:49:39.911Z,41.83
2023-05-10T17:52:07.484Z,41.62
2023-05-10T17:54:35.206Z,41.88
2023-05-10T17:57:03.692Z,41.95
2023-05-10T17:59:31.005Z,42.02
2023-05-10T18:01:58.123Z,43.46
2023-05-10T18:04:26.106Z,43.77
2023-05-10T18:07:01.020Z,44.47
2023-05-10T18:09:28.973Z,44.64
2023-05-10T18:11:56.308Z,45.11
2023-05-10T18:14:39.025Z,46.07
2023-05-10T18:17:08.123Z,45.90
2023-05-10T18:19:35.680Z,46.24
2023-05-10T18:22:02.888Z,46.43
2023-05-10T18:24:38.815Z,46.92
2023-05-10T18:27:08.966Z,47.00
2023-05-10T18:29:37.023Z,47.49
2023-05-10T18:32:04.241Z,47.80
2023-05-10T18:34:31.537Z,47.51
2023-05-10T18:36:59.231Z,47.99
2023-05-10T18:39:26.510Z,48.53
2023-05-10T18:41:53.710Z,48.69
2023-05-10T18:44:22.011Z,48.64
2023-05-10T18:46:49.101Z,48.66
2023-05-10T18:49:16.441Z,48.77
2023-05-10T18:51:43.593Z,49.13
2023-05-10T18:54:10.827Z,48.66
2023-05-10T18:56:40.056Z,49.64
2023-05-10T18:59:07.278Z,49.73
2023-05-10T19:01:34.253Z,49.21
2023-05-10T19:04:01.641Z,50.15
2023-05-10T19:06:28.713Z,50.06
2023-05-10T19:08:56.005Z,50.29
2023-05-10T19:11:23.336Z,50.83
2023-05-10T19:13:50.681Z,50.33
2023-05-10T19:16:18.299Z,51.23
2023-05-10T19:18:46.733Z,50.79
2023-05-10T19:21:13.835Z,51.03
2023-05-10T19:23:42.063Z,50.63
2023-05-10T19:26:11.173Z,50.77
2023-05-10T19:28:38.695Z,50.87
2023-05-10T19:31:06.289Z,51.66
2023-05-10T19:33:34.321Z,51.74
2023-05-10T19:36:01.223Z,51.97
2023-05-10T19:38:28.462Z,52.40
2023-05-10T19:40:58.304Z,52.11
2023-05-10T19:43:32.829Z,52.28
2023-05-10T19:46:04.761Z,52.29
2023-05-10T19:48:32.434Z,52.15
2023-05-10T19:51:02.151Z,52.07
2023-05-10T19:53:30.620Z,52.28
2023-05-10T19:56:04.730Z,52.23
2023-05-10T19:58:33.378Z,52.25
2023-05-10T20:01:00.499Z,52.56
2023-05-10T20:03:28.562Z,52.16
2023-05-10T20:05:55.721Z,52.68
2023-05-10T20:08:23.049Z,52.91
2023-05-10T20:10:50.147Z,53.31
2023-05-10T20:13:18.073Z,53.02
2023-05-10T20:15:46.611Z,53.13
2023-05-10T20:18:13.939Z,53.16
2023-05-10T20:20:41.227Z,52.96
2023-05-10T20:23:08.807Z,53.65
2023-05-10T20:25:36.221Z,53.44
2023-05-10T20:28:03.840Z,52.82
2023-05-10T20:30:32.598Z,53.31
2023-05-10T20:33:04.295Z,53.40
2023-05-10T20:35:33.654Z,53.03
2023-05-10T20:38:02.172Z,53.29
2023-05-10T20:40:29.151Z,53.33
2023-05-10T20:42:56.520Z,53.54
2023-05-10T20:45:23.511Z,54.07
2023-05-10T20:47:50.844Z,54.22
2023-05-10T20:50:18.112Z,54.25
2023-05-10T20:52:45.712Z,53.88
2023-05-10T20:55:12.847Z,54.06
2023-05-10T20:57:40.244Z,54.24
2023-05-10T21:00:09.461Z,54.03
2023-05-10T21:02:36.985Z,54.25
2023-05-10T21:05:05.330Z,54.25
2023-05-10T21:07:32.979Z,54.45
2023-05-10T21:09:59.990Z,54.31
2023-05-10T21:12:27.172Z,54.03
2023-05-10T21:14:54.290Z,54.32
2023-05-10T21:17:23.159Z,54.29
2023-05-10T21:19:51.206Z,53.98
2023-05-10T21:22:20.868Z,54.21
2023-05-10T21:24:48.060Z,54.43
2023-05-10T21:27:15.368Z,54.22
2023-05-10T21:29:42.915Z,54.61
2023-05-10T21:32:12.435Z,54.28
2023-05-10T21:34:39.956Z,54.27
2023-05-10T21:37:07.326Z,54.26
2023-05-10T21:39:34.407Z,54.32
2023-05-10T21:42:02.068Z,53.83
2023-05-10T21:44:29.561Z,53.94
2023-05-10T21:46:56.732Z,53.65
2023-05-10T21:49:23.684Z,53.63
2023-05-10T21:51:51.195Z,53.64
2023-05-10T21:54:18.396Z,53.82
2023-05-10T21:56:45.775Z,53.56
2023-05-10T21:59:12.765Z,52.90
2023-05-10T22:01:40.118Z,53.17
2023-05-10T22:04:07.154Z,53.19
2023-05-10T22:06:34.832Z,52.93
2023-05-10T22:09:02.190Z,52.44
2023-05-10T22:11:29.679Z,51.59
2023-05-10T22:13:57.076Z,50.76
2023-05-10T22:16:39.451Z,50.92
2023-05-10T22:19:06.983Z,50.21
2023-05-10T22:21:34.350Z,49.88
2023-05-10T22:24:01.576Z,49.36
2023-05-10T22:26:28.821Z,49.36
2023-05-10T22:28:56.179Z,49.13
2023-05-10T22:31:23.680Z,48.56
2023-05-10T22:33:50.881Z,48.64
2023-05-10T22:36:18.245Z,49.00
2023-05-10T22:38:46.008Z,49.21
2023-05-10T22:41:13.342Z,48.44
2023-05-10T22:43:40.336Z,48.39
2023-05-10T22:46:07.761Z,48.08
2023-05-10T22:48:35.878Z,48.06
2023-05-10T22:51:03.844Z,47.80
2023-05-10T22:53:31.271Z,47.45
2023-05-10T22:55:58.686Z,47.61
2023-05-10T22:58:26.771Z,47.64
2023-05-10T23:00:55.617Z,47.66
2023-05-10T23:03:23.005Z,47.58
2023-05-10T23:05:50.463Z,47.82
2023-05-10T23:08:17.526Z,47.77
2023-05-10T23:10:44.818Z,47.57
2023-05-10T23:13:11.867Z,47.86
2023-05-10T23:15:40.233Z,47.84
2023-05-10T23:18:10.340Z,47.94
2023-05-10T23:20:37.592Z,48.11
2023-05-10T23:23:04.606Z,47.79
2023-05-10T23:25:31.801Z,47.92
2023-05-10T23:27:58.762Z,47.87
2023-05-10T23:30:30.085Z,48.24
2023-05-10T23:32:57.827Z,48.09
2023-05-10T23:35:25.030Z,48.23
2023-05-10T23:37:52.300Z,48.41
2023-05-10T23:40:19.916Z,48.26
2023-05-10T23:42:47.312Z,47.98
2023-05-10T23:45:14.586Z,48.12
2023-05-10T23:47:41.727Z,47.99
2023-05-10T23:50:10.700Z,48.14
2023-05-10T23:52:37.776Z,47.79
2023-05-10T23:55:05.575Z,47.81
2023-05-10T23:57:33.582Z,47.89
